Time;durP1;ratioP1;P1;durP2;ratioP2;P2;SDS_P1;SDS_P2;PMS_P1;PMS_P2;Temp;Humidity;BMP_temperature;BMP_pressure;BME280_temperature;BME280_humidity;BME280_pressure;Samples;Min_cycle;Max_cycle;Signal;HPM_P1;HPM_P2
2022/04/09 00:01:01;;;;;;;8.30;6.35;;;;;;;6.01;72.13;96406.56;5088543;28;20024;-71
2022/04/09 00:03:27;;;;;;;9.15;5.68;;;;;;;5.99;72.14;96402.50;5089929;28;20515;-70
2022/04/09 00:05:52;;;;;;;9.02;6.25;;;;;;;5.96;72.28;96409.41;5088783;28;20078;-71
2022/04/09 00:08:18;;;;;;;9.85;7.05;;;;;;;5.94;72.47;96401.53;5089639;28;20020;-71
2022/04/09 00:10:43;;;;;;;10.45;6.45;;;;;;;5.92;71.75;96401.06;5089620;28;20032;-70
2022/04/09 00:13:08;;;;;;;8.13;5.90;;;;;;;5.84;74.00;96390.97;5089563;28;20389;-70
2022/04/09 00:15:34;;;;;;;10.52;7.65;;;;;;;5.77;72.59;96393.34;5089119;28;20497;-71
2022/04/09 00:17:59;;;;;;;8.38;5.70;;;;;;;5.79;72.84;96382.97;5090055;28;20028;-70
2022/04/09 00:20:25;;;;;;;9.90;6.25;;;;;;;5.81;72.32;96376.06;5090370;28;20111;-71
2022/04/09 00:22:50;;;;;;;9.88;6.60;;;;;;;5.84;72.95;96374.66;5090113;28;20099;-71
2022/04/09 00:25:21;;;;;;;12.23;7.43;;;;;;;5.88;73.25;96364.75;5089908;28;20059;-70
2022/04/09 00:27:48;;;;;;;10.85;6.72;;;;;;;5.93;73.03;96348.25;5090438;28;20124;-71
2022/04/09 00:30:13;;;;;;;8.48;6.38;;;;;;;5.92;73.50;96343.13;5088753;28;20358;-71
2022/04/09 00:32:39;;;;;;;8.55;7.13;;;;;;;5.87;72.83;96329.69;5089933;28;20039;-70
2022/04/09 00:35:05;;;;;;;9.25;7.30;;;;;;;5.85;72.77;96321.03;5088723;28;20020;-71
2022/04/09 00:37:32;;;;;;;8.77;7.10;;;;;;;5.82;72.66;96325.22;5088250;28;20020;-70
2022/04/09 00:39:57;;;;;;;10.98;7.38;;;;;;;5.76;72.22;96329.19;5089677;28;20031;-71
2022/04/09 00:42:23;;;;;;;7.50;6.60;;;;;;;5.70;72.70;96335.91;5090017;28;20020;-70
2022/04/09 00:44:50;;;;;;;8.93;6.70;;;;;;;5.66;72.52;96336.53;5089555;28;20047;-71
2022/04/09 00:47:16;;;;;;;11.57;8.25;;;;;;;5.69;72.46;96332.38;5090139;28;20047;-71
2022/04/09 00:49:42;;;;;;;11.73;7.20;;;;;;;5.77;73.00;96330.78;5089835;28;20032;-71
2022/04/09 00:52:09;;;;;;;9.93;7.65;;;;;;;5.84;72.96;96333.03;5089962;28;20028;-71
2022/04/09 00:54:42;;;;;;;7.72;5.88;;;;;;;5.89;73.36;96322.81;5089224;28;20032;-71
2022/04/09 00:57:08;;;;;;;9.90;6.40;;;;;;;5.87;72.57;96344.09;5090419;28;20024;-71
2022/04/09 00:59:41;;;;;;;11.40;8.57;;;;;;;5.78;72.28;96330.47;5090576;28;20023;-70
2022/04/09 01:02:07;;;;;;;8.13;5.68;;;;;;;5.78;72.88;96329.69;5090903;28;20024;-71
2022/04/09 01:04:33;;;;;;;7.30;6.10;;;;;;;5.77;72.38;96322.63;5090413;28;20034;-71
2022/04/09 01:07:00;;;;;;;8.23;5.90;;;;;;;5.82;72.73;96314.31;5091942;28;20029;-71
2022/04/09 01:09:26;;;;;;;7.13;5.70;;;;;;;5.83;73.14;96313.22;5089443;28;20028;-70
2022/04/09 01:11:53;;;;;;;7.22;6.03;;;;;;;5.81;72.52;96316.22;5091579;28;20473;-70
2022/04/09 01:14:19;;;;;;;9.43;6.75;;;;;;;5.90;72.70;96302.66;5093139;28;20039;-70
2022/04/09 01:16:44;;;;;;;7.30;5.93;;;;;;;5.99;73.36;96297.22;5093642;28;20542;-70
2022/04/09 01:19:10;;;;;;;9.23;7.07;;;;;;;5.98;72.85;96295.59;5093647;28;20193;-71
2022/04/09 01:21:35;;;;;;;10.30;7.22;;;;;;;5.92;72.17;96302.31;5093464;28;20094;-70
2022/04/09 01:24:04;;;;;;;8.32;6.43;;;;;;;5.93;72.69;96303.94;5093140;28;20024;-70
2022/04/09 01:26:29;;;;;;;10.35;7.90;;;;;;;5.88;72.76;96301.34;5093790;28;20659;-70
2022/04/09 01:28:55;;;;;;;8.98;7.22;;;;;;;5.88;72.19;96288.56;5093763;28;20074;-71
2022/04/09 01:31:20;;;;;;;9.65;8.20;;;;;;;5.86;72.54;96293.53;5092946;28;20028;-70
2022/04/09 01:33:46;;;;;;;10.07;6.85;;;;;;;5.80;72.15;96302.97;5093638;28;20020;-71
2022/04/09 01:36:11;;;;;;;10.10;7.80;;;;;;;5.74;72.68;96291.41;5093855;28;20034;-72
2022/04/09 01:38:37;;;;;;;9.57;6.90;;;;;;;5.71;72.13;96300.22;5093449;28;20087;-69
2022/04/09 01:41:04;;;;;;;9.73;7.13;;;;;;;5.73;72.71;96289.03;5091507;28;20028;-71
2022/04/09 01:43:29;;;;;;;9.10;7.10;;;;;;;5.73;72.68;96267.25;5091698;28;21109;-70
2022/04/09 01:45:55;;;;;;;11.68;8.32;;;;;;;5.71;72.63;96245.81;5093114;28;20016;-70
2022/04/09 01:48:21;;;;;;;12.38;8.13;;;;;;;5.69;73.02;96234.47;5092793;28;20012;-70
2022/04/09 01:50:46;;;;;;;13.75;9.75;;;;;;;5.68;73.08;96221.19;5092238;28;20027;-69
2022/04/09 01:53:12;;;;;;;15.63;9.27;;;;;;;5.69;72.92;96220.06;5091046;28;20058;-69
2022/04/09 01:55:38;;;;;;;12.55;9.13;;;;;;;5.68;73.09;96226.63;5091689;28;20039;-69
2022/04/09 01:58:04;;;;;;;13.38;9.65;;;;;;;5.68;72.83;96221.19;5091961;28;20020;-69
2022/04/09 02:00:29;;;;;;;15.27;11.50;;;;;;;5.68;73.42;96213.03;5091609;28;20072;-69
2022/04/09 02:02:55;;;;;;;18.75;12.15;;;;;;;5.64;72.96;96207.44;5089321;28;20047;-69
2022/04/09 02:05:21;;;;;;;20.58;13.05;;;;;;;5.61;73.22;96208.84;5090983;28;20055;-69
2022/04/09 02:07:49;;;;;;;26.80;15.40;;;;;;;5.58;73.73;96185.03;5090531;28;20016;-69
2022/04/09 02:10:16;;;;;;;23.58;15.45;;;;;;;5.59;74.04;96175.75;5092234;28;20032;-70
2022/04/09 02:12:43;;;;;;;24.75;15.15;;;;;;;5.64;73.51;96185.69;5092426;28;20028;-69
2022/04/09 02:15:10;;;;;;;27.33;16.42;;;;;;;5.67;73.94;96195.91;5091232;28;20032;-69
2022/04/09 02:17:38;;;;;;;30.08;17.00;;;;;;;5.69;73.91;96185.53;5091795;28;20419;-70
2022/04/09 02:20:06;;;;;;;28.50;17.75;;;;;;;5.76;74.32;96187.75;5091160;28;20034;-70
2022/04/09 02:22:35;;;;;;;32.58;17.98;;;;;;;5.89;73.96;96191.41;5091321;28;20659;-70
2022/04/09 02:25:02;;;;;;;30.50;17.75;;;;;;;6.00;73.82;96187.28;5088470;28;20035;-69
2022/04/09 02:27:28;;;;;;;30.20;18.15;;;;;;;6.07;74.02;96163.09;5090041;28;20031;-70
2022/04/09 02:29:53;;;;;;;28.30;16.38;;;;;;;6.13;74.15;96163.72;5091131;28;20032;-70
2022/04/09 02:32:19;;;;;;;26.33;15.25;;;;;;;6.11;73.86;96144.19;5089959;28;20440;-70
2022/04/09 02:34:44;;;;;;;25.95;16.33;;;;;;;6.00;73.38;96170.97;5090973;28;20039;-70
2022/04/09 02:37:09;;;;;;;23.30;13.82;;;;;;;5.97;73.30;96161.47;5089660;28;20090;-70
2022/04/09 02:39:35;;;;;;;26.08;15.55;;;;;;;5.90;73.48;96153.03;5089152;28;20162;-70
2022/04/09 02:42:00;;;;;;;29.80;17.70;;;;;;;5.89;73.17;96145.97;5090470;28;20024;-70
2022/04/09 02:44:26;;;;;;;27.90;17.02;;;;;;;5.90;73.86;96144.06;5087234;28;20111;-70
2022/04/09 02:46:51;;;;;;;30.00;17.45;;;;;;;5.96;73.44;96140.03;5090955;28;20470;-70
2022/04/09 02:49:17;;;;;;;28.08;15.98;;;;;;;5.97;73.72;96123.38;5090793;28;20016;-70
2022/04/09 02:51:43;;;;;;;26.10;15.25;;;;;;;5.94;73.34;96115.06;5090266;28;20077;-71
2022/04/09 02:54:15;;;;;;;23.35;15.32;;;;;;;5.91;72.95;96115.72;5090151;28;20039;-69
2022/04/09 02:56:41;;;;;;;28.63;16.45;;;;;;;5.86;73.76;96111.25;5090505;28;20028;-70
2022/04/09 02:59:08;;;;;;;27.00;15.57;;;;;;;5.91;73.50;96102.13;5087963;28;20024;-70
2022/04/09 03:01:33;;;;;;;29.38;17.15;;;;;;;5.95;73.81;96101.13;5090522;28;20474;-70
2022/04/09 03:03:59;;;;;;;25.52;16.13;;;;;;;6.06;74.11;96104.38;5091247;28;20020;-70
2022/04/09 03:06:24;;;;;;;26.42;16.70;;;;;;;6.11;73.69;96108.81;5091913;28;20111;-71
2022/04/09 03:08:49;;;;;;;27.77;16.80;;;;;;;6.10;73.48;96108.03;5091885;28;20025;-71
2022/04/09 03:11:15;;;;;;;28.38;16.30;;;;;;;6.07;73.47;96107.88;5089581;28;20465;-70
2022/04/09 03:13:40;;;;;;;28.05;16.88;;;;;;;6.07;73.38;96100.50;5091194;28;20048;-71
2022/04/09 03:16:06;;;;;;;28.52;17.38;;;;;;;5.99;73.19;96109.47;5091261;28;20031;-70
2022/04/09 03:18:31;;;;;;;59.65;30.02;;;;;;;5.97;73.43;96115.22;5091726;28;20026;-70
2022/04/09 03:20:56;;;;;;;451.83;206.82;;;;;;;6.06;74.05;96119.88;5089942;28;20882;-70
2022/04/09 03:23:22;;;;;;;62.03;31.13;;;;;;;6.08;73.83;96132.03;5091211;28;20028;-71
2022/04/09 03:25:48;;;;;;;39.00;22.13;;;;;;;6.12;73.89;96137.63;5091378;28;20039;-71
2022/04/09 03:28:14;;;;;;;32.25;19.67;;;;;;;6.18;73.77;96154.56;5090817;28;20024;-71
2022/04/09 03:30:41;;;;;;;29.65;18.27;;;;;;;6.10;73.70;96159.75;5091432;28;20504;-71
2022/04/09 03:33:06;;;;;;;27.42;16.70;;;;;;;6.06;73.83;96169.66;5091150;28;20109;-70
2022/04/09 03:35:32;;;;;;;33.55;19.42;;;;;;;5.91;73.90;96181.81;5091099;28;20494;-71
2022/04/09 03:37:58;;;;;;;26.67;16.67;;;;;;;5.81;73.87;96182.94;5091488;28;20519;-70
2022/04/09 03:40:23;;;;;;;31.58;17.83;;;;;;;5.69;74.48;96190.97;5091386;28;20031;-71
2022/04/09 03:42:49;;;;;;;37.63;22.58;;;;;;;5.56;74.32;96203.56;5091027;28;20681;-71
2022/04/09 03:45:14;;;;;;;38.35;21.60;;;;;;;5.47;74.75;96194.63;5090794;28;20048;-71
2022/04/09 03:47:39;;;;;;;35.80;19.98;;;;;;;5.44;75.71;96201.50;5091276;28;20031;-71
2022/04/09 03:50:06;;;;;;;38.20;21.27;;;;;;;5.36;75.29;96197.66;5091266;28;20031;-70
2022/04/09 03:52:32;;;;;;;35.42;20.48;;;;;;;5.32;77.40;96193.97;5090724;28;20035;-71
2022/04/09 03:54:57;;;;;;;30.15;18.23;;;;;;;5.27;76.85;96193.31;5086738;28;20020;-71
2022/04/09 03:57:23;;;;;;;31.15;18.13;;;;;;;5.23;76.56;96195.88;5090092;28;20711;-70
2022/04/09 03:59:51;;;;;;;36.83;21.10;;;;;;;5.20;77.21;96199.22;5088775;28;20032;-71
2022/04/09 04:02:17;;;;;;;31.92;19.60;;;;;;;5.16;79.30;96196.34;5089476;28;20027;-71
2022/04/09 04:04:43;;;;;;;32.20;18.88;;;;;;;5.09;78.51;96201.44;5088352;28;20378;-69
2022/04/09 04:07:08;;;;;;;29.08;16.90;;;;;;;5.06;78.05;96213.75;5087011;28;20036;-69
2022/04/09 04:09:34;;;;;;;21.42;13.25;;;;;;;5.00;77.15;96209.56;5089744;28;20035;-69
2022/04/09 04:11:59;;;;;;;24.95;13.70;;;;;;;4.97;78.61;96210.19;5089035;28;20095;-70
2022/04/09 04:14:26;;;;;;;12.02;7.32;;;;;;;4.97;79.13;96214.81;5087146;28;20497;-69
2022/04/09 04:16:51;;;;;;;11.18;6.85;;;;;;;4.94;77.56;96223.59;5090027;28;20012;-69
2022/04/09 04:19:17;;;;;;;10.55;7.63;;;;;;;4.85;77.30;96221.66;5090084;28;20070;-69
2022/04/09 04:21:42;;;;;;;8.80;6.57;;;;;;;4.82;78.81;96240.50;5089519;28;20553;-69
2022/04/09 04:24:08;;;;;;;11.15;7.28;;;;;;;4.81;78.28;96242.41;5089343;28;20027;-69
2022/04/09 04:26:34;;;;;;;9.15;6.38;;;;;;;4.81;77.56;96242.41;5089530;28;20026;-69
2022/04/09 04:28:59;;;;;;;8.30;7.07;;;;;;;4.75;77.87;96236.31;5089235;28;20660;-70
2022/04/09 04:31:24;;;;;;;7.85;6.38;;;;;;;4.72;78.05;96245.06;5089073;28;20040;-69
2022/04/09 04:33:50;;;;;;;8.30;6.43;;;;;;;4.73;79.73;96246.69;5089349;28;20377;-69
2022/04/09 04:36:15;;;;;;;7.47;6.10;;;;;;;4.68;78.97;96263.13;5089719;28;20370;-69
2022/04/09 04:38:41;;;;;;;10.70;6.53;;;;;;;4.63;78.13;96274.13;5090808;28;20028;-69
2022/04/09 04:41:06;;;;;;;7.57;5.55;;;;;;;4.64;78.48;96273.00;5093384;28;20022;-69
2022/04/09 04:43:32;;;;;;;7.43;5.30;;;;;;;4.59;78.78;96278.56;5092700;28;20359;-69
2022/04/09 04:45:58;;;;;;;5.80;4.40;;;;;;;4.54;79.00;96284.91;5094025;28;20107;-69
2022/04/09 04:48:24;;;;;;;8.68;4.68;;;;;;;4.50;78.37;96297.50;5093571;28;20385;-69
2022/04/09 04:50:49;;;;;;;4.88;3.70;;;;;;;4.43;77.88;96313.44;5092100;28;20384;-69
2022/04/09 04:53:15;;;;;;;5.13;3.95;;;;;;;4.32;78.95;96327.25;5093349;28;20036;-69
2022/04/09 04:55:40;;;;;;;4.22;2.80;;;;;;;4.20;78.43;96342.47;5093281;28;20070;-69
2022/04/09 04:58:06;;;;;;;4.13;2.60;;;;;;;4.11;78.46;96347.81;5093137;28;20024;-69
2022/04/09 05:00:32;;;;;;;3.42;2.42;;;;;;;4.04;79.87;96359.09;5092174;28;20024;-69
2022/04/09 05:02:58;;;;;;;3.10;2.33;;;;;;;3.92;78.63;96378.63;5092962;28;20050;-70
2022/04/09 05:05:23;;;;;;;3.05;2.17;;;;;;;3.84;78.96;96401.03;5093292;28;20020;-69
2022/04/09 05:07:51;;;;;;;2.85;2.20;;;;;;;3.77;78.75;96416.88;5092873;28;20020;-69
2022/04/09 05:10:18;;;;;;;2.17;1.92;;;;;;;3.67;78.64;96436.88;5093052;28;20024;-69
2022/04/09 05:12:44;;;;;;;3.45;2.25;;;;;;;3.58;78.42;96453.84;5092636;28;20102;-69
2022/04/09 05:15:12;;;;;;;4.18;2.30;;;;;;;3.50;79.12;96457.25;5092643;28;20020;-69
2022/04/09 05:17:38;;;;;;;3.63;2.88;;;;;;;3.40;78.90;96469.06;5092559;28;20020;-69
2022/04/09 05:20:08;;;;;;;3.35;2.38;;;;;;;3.34;79.06;96491.94;5093148;28;20027;-70
2022/04/09 05:22:36;;;;;;;2.95;2.28;;;;;;;3.26;79.42;96496.16;5091515;28;20378;-69
2022/04/09 05:25:02;;;;;;;3.50;2.03;;;;;;;3.18;79.78;96509.56;5092356;28;20020;-70
2022/04/09 05:27:28;;;;;;;3.17;2.28;;;;;;;3.09;79.87;96518.38;5093166;28;20388;-69
2022/04/09 05:29:53;;;;;;;3.45;1.90;;;;;;;3.04;80.47;96515.75;5092226;28;20028;-69
2022/04/09 05:32:19;;;;;;;4.18;2.63;;;;;;;3.01;80.74;96521.75;5090839;28;20035;-69
2022/04/09 05:34:46;;;;;;;4.53;2.80;;;;;;;2.92;81.31;96532.44;5091529;28;20066;-69
2022/04/09 05:37:11;;;;;;;4.57;3.20;;;;;;;2.89;80.66;96529.50;5092222;28;20520;-70
2022/04/09 05:39:37;;;;;;;3.65;1.90;;;;;;;2.90;80.92;96540.06;5092318;28;20028;-69
2022/04/09 05:42:03;;;;;;;2.05;1.58;;;;;;;2.93;80.90;96555.72;5091881;28;20020;-69
2022/04/09 05:44:28;;;;;;;2.50;1.90;;;;;;;2.87;81.04;96570.44;5091052;28;20052;-69
2022/04/09 05:46:54;;;;;;;3.05;2.17;;;;;;;2.83;80.73;96572.09;5092137;28;20020;-70
2022/04/09 05:49:20;;;;;;;2.95;1.92;;;;;;;2.80;80.94;96576.22;5091942;28;20066;-69
2022/04/09 05:51:47;;;;;;;2.63;1.92;;;;;;;2.79;80.81;96579.19;5091005;28;20031;-69
2022/04/09 05:54:12;;;;;;;3.10;2.25;;;;;;;2.80;80.41;96584.34;5091357;28;20028;-69
2022/04/09 05:56:38;;;;;;;2.15;1.63;;;;;;;2.82;80.86;96602.97;5091802;28;20031;-69
2022/04/09 05:59:03;;;;;;;2.22;1.80;;;;;;;2.81;80.55;96591.38;5091539;28;20106;-69
2022/04/09 06:01:28;;;;;;;3.20;2.40;;;;;;;2.82;80.92;96605.69;5092001;28;20101;-69
2022/04/09 06:03:55;;;;;;;3.50;2.75;;;;;;;2.76;80.52;96617.69;5091548;28;20023;-69
2022/04/09 06:06:22;;;;;;;3.90;2.83;;;;;;;2.76;80.25;96620.38;5092133;28;20426;-69
2022/04/09 06:08:48;;;;;;;2.88;2.38;;;;;;;2.79;80.76;96628.75;5091974;28;20023;-69
2022/04/09 06:11:14;;;;;;;3.15;2.40;;;;;;;2.80;80.91;96637.66;5092292;28;20107;-69
2022/04/09 06:13:40;;;;;;;3.47;2.53;;;;;;;2.81;80.81;96652.81;5091296;28;20032;-69
2022/04/09 06:16:08;;;;;;;3.13;2.42;;;;;;;2.82;81.04;96670.66;5091782;28;20024;-69
2022/04/09 06:18:37;;;;;;;7.63;4.45;;;;;;;2.87;80.54;96691.44;5092258;28;20020;-69
2022/04/09 06:21:05;;;;;;;4.28;2.92;;;;;;;2.89;81.25;96711.75;5090359;28;20020;-69
2022/04/09 06:23:31;;;;;;;4.43;2.72;;;;;;;2.89;81.06;96738.00;5091368;28;20031;-69
2022/04/09 06:25:57;;;;;;;3.97;2.70;;;;;;;2.83;80.51;96745.38;5091938;28;20031;-69
2022/04/09 06:28:23;;;;;;;5.82;4.18;;;;;;;2.80;80.58;96764.91;5091732;28;20051;-69
2022/04/09 06:30:48;;;;;;;2.17;1.90;;;;;;;2.84;80.04;96771.38;5091424;28;20474;-69
2022/04/09 06:33:14;;;;;;;2.50;2.30;;;;;;;2.83;80.54;96762.47;5091078;28;20424;-69
2022/04/09 06:35:39;;;;;;;3.08;2.58;;;;;;;2.76;80.73;96764.69;5090437;28;20028;-69
2022/04/09 06:38:05;;;;;;;3.65;2.67;;;;;;;2.71;81.30;96777.47;5091804;28;20047;-69
2022/04/09 06:40:30;;;;;;;3.75;2.72;;;;;;;2.68;81.42;96790.47;5091446;28;20024;-69
2022/04/09 06:42:57;;;;;;;3.63;2.55;;;;;;;2.66;81.11;96799.97;5086629;28;20061;-70
2022/04/09 06:45:23;;;;;;;2.90;2.28;;;;;;;2.63;80.95;96812.19;5089992;28;20502;-69
2022/04/09 06:47:49;;;;;;;3.60;3.00;;;;;;;2.63;81.08;96816.78;5090198;28;20039;-70
2022/04/09 06:50:14;;;;;;;3.58;2.40;;;;;;;2.60;80.85;96818.19;5090356;28;20039;-70
2022/04/09 06:52:40;;;;;;;6.70;3.47;;;;;;;2.59;81.30;96815.75;5090406;28;20031;-70
2022/04/09 06:55:09;;;;;;;3.53;2.45;;;;;;;2.54;81.76;96813.91;5089791;28;20945;-69
2022/04/09 06:57:41;;;;;;;2.97;2.53;;;;;;;2.52;80.92;96819.59;5089589;28;20047;-70
2022/04/09 07:00:13;;;;;;;3.30;2.63;;;;;;;2.55;81.08;96823.63;5089383;28;20028;-70
2022/04/09 07:02:39;;;;;;;4.90;3.20;;;;;;;2.59;81.28;96846.34;5086832;28;20034;-69
2022/04/09 07:05:05;;;;;;;4.32;3.03;;;;;;;2.56;80.95;96846.09;5089110;28;20054;-69
2022/04/09 07:07:31;;;;;;;8.18;5.07;;;;;;;2.53;81.20;96858.28;5089457;28;20074;-69
2022/04/09 07:10:11;;;;;;;11.73;8.15;;;;;;;2.55;82.32;96871.53;5089325;28;20031;-69
2022/04/09 07:12:38;;;;;;;15.30;11.63;;;;;;;2.53;81.23;96886.16;5088300;28;20028;-69
2022/04/09 07:15:04;;;;;;;6.85;3.97;;;;;;;2.52;81.45;96892.66;5087247;28;20439;-69
2022/04/09 07:17:30;;;;;;;10.65;7.30;;;;;;;2.52;81.85;96897.28;5089220;28;20063;-69
2022/04/09 07:19:59;;;;;;;29.75;10.15;;;;;;;2.53;81.49;96915.91;5089247;28;20028;-70
2022/04/09 07:22:25;;;;;;;16.00;6.70;;;;;;;2.53;81.04;96921.34;5088736;28;20035;-70
2022/04/09 07:24:51;;;;;;;21.60;6.88;;;;;;;2.62;81.92;96934.28;5088048;28;20024;-70
2022/04/09 07:27:16;;;;;;;19.05;6.57;;;;;;;2.65;81.33;96926.38;5087844;28;20413;-70
2022/04/09 07:29:42;;;;;;;9.55;4.13;;;;;;;2.66;80.90;96943.44;5088985;28;20055;-69
2022/04/09 07:32:08;;;;;;;18.30;7.95;;;;;;;2.63;80.66;96962.97;5089339;28;20539;-70
2022/04/09 07:34:33;;;;;;;17.00;6.95;;;;;;;2.62;80.42;96966.75;5087866;28;20055;-70
2022/04/09 07:36:59;;;;;;;9.02;4.32;;;;;;;2.63;81.52;96963.78;5087451;28;20055;-70
2022/04/09 07:39:24;;;;;;;6.82;3.80;;;;;;;2.60;80.70;96964.34;5089741;28;20110;-70
2022/04/09 07:41:50;;;;;;;6.57;4.25;;;;;;;2.60;80.92;96993.28;5089367;28;20103;-70
2022/04/09 07:44:15;;;;;;;15.95;5.60;;;;;;;2.56;80.16;97024.72;5087655;28;20040;-70
2022/04/09 07:46:41;;;;;;;11.55;4.55;;;;;;;2.53;80.92;97031.50;5088064;28;20032;-70
2022/04/09 07:49:06;;;;;;;16.58;5.95;;;;;;;2.55;81.05;97040.16;5089310;28;20028;-70
2022/04/09 07:51:31;;;;;;;14.23;6.35;;;;;;;2.61;81.44;97019.28;5088381;28;20028;-69
2022/04/09 07:53:57;;;;;;;9.60;5.40;;;;;;;2.64;80.29;97024.13;5089033;28;20030;-70
2022/04/09 07:56:22;;;;;;;12.05;5.55;;;;;;;2.66;80.75;97039.00;5088396;28;20366;-70
2022/04/09 07:58:48;;;;;;;13.10;5.88;;;;;;;2.73;80.38;97059.53;5088996;28;20030;-70
2022/04/09 08:01:13;;;;;;;19.58;7.95;;;;;;;2.72;80.12;97068.75;5088483;28;20270;-70
2022/04/09 08:03:39;;;;;;;15.20;6.75;;;;;;;2.66;79.94;97066.06;5088011;28;20024;-70
2022/04/09 08:06:07;;;;;;;8.48;5.68;;;;;;;2.65;80.48;97060.94;5089143;28;20116;-70
2022/04/09 08:08:33;;;;;;;7.63;4.70;;;;;;;2.68;79.75;97069.28;5088277;28;20020;-70
2022/04/09 08:10:58;;;;;;;7.68;4.60;;;;;;;2.68;80.23;97077.41;5089108;28;20115;-70
2022/04/09 08:13:24;;;;;;;7.43;4.28;;;;;;;2.76;80.54;97084.16;5089482;28;20107;-69
2022/04/09 08:15:50;;;;;;;8.23;5.80;;;;;;;2.71;79.96;97088.78;5092660;28;20028;-69
2022/04/09 08:18:15;;;;;;;10.00;6.88;;;;;;;2.74;80.14;97102.59;5093306;28;20422;-70
2022/04/09 08:20:41;;;;;;;21.65;11.02;;;;;;;2.78;80.18;97111.78;5093137;28;20024;-70
2022/04/09 08:23:06;;;;;;;20.73;11.13;;;;;;;2.76;79.32;97099.59;5093308;28;20458;-69
2022/04/09 08:25:32;;;;;;;13.30;7.75;;;;;;;2.81;79.79;97113.09;5092681;28;20022;-69
2022/04/09 08:27:57;;;;;;;5.72;4.40;;;;;;;2.85;80.37;97114.16;5092649;28;20020;-69
2022/04/09 08:30:23;;;;;;;22.90;12.30;;;;;;;2.99;80.14;97119.78;5092752;28;20169;-70
2022/04/09 08:32:50;;;;;;;22.38;12.73;;;;;;;3.10;79.83;97132.19;5092984;28;20051;-69
2022/04/09 08:35:16;;;;;;;11.73;6.85;;;;;;;3.16;79.84;97143.78;5092623;28;20024;-70
2022/04/09 08:37:41;;;;;;;13.98;7.95;;;;;;;3.19;79.81;97148.63;5092705;28;20012;-69
2022/04/09 08:40:12;;;;;;;12.73;7.43;;;;;;;3.26;79.87;97157.28;5092407;28;20070;-70
2022/04/09 08:42:37;;;;;;;10.02;6.32;;;;;;;3.30;79.76;97162.13;5090525;28;20110;-72
2022/04/09 08:45:03;;;;;;;10.77;7.20;;;;;;;3.31;79.69;97171.88;5091613;28;20194;-72
2022/04/09 08:47:29;;;;;;;24.95;12.40;;;;;;;3.28;79.32;97178.66;5092326;28;20036;-72
2022/04/09 08:49:56;;;;;;;19.08;10.70;;;;;;;3.26;79.28;97184.38;5093463;28;20115;-70
2022/04/09 08:52:22;;;;;;;17.83;11.68;;;;;;;3.26;79.52;97189.00;5093346;28;20059;-71
2022/04/09 08:54:47;;;;;;;17.60;11.30;;;;;;;3.31;78.92;97183.50;5092904;28;20016;-72
2022/04/09 08:57:14;;;;;;;20.73;12.82;;;;;;;3.41;78.81;97175.34;5093213;28;20028;-71
2022/04/09 08:59:40;;;;;;;29.92;15.43;;;;;;;3.57;79.19;97177.94;5093966;28;20025;-70
2022/04/09 09:02:06;;;;;;;22.20;14.23;;;;;;;3.75;79.17;97181.88;5093247;28;20355;-70
2022/04/09 09:04:32;;;;;;;25.10;15.30;;;;;;;3.98;78.91;97171.38;5093090;28;20085;-72
2022/04/09 09:07:43;;;;;;;24.20;14.73;;;;;;;4.16;79.38;97186.97;5091947;28;20020;-72
2022/04/09 09:10:16;;;;;;;25.08;14.90;;;;;;;4.17;78.76;97212.19;5009584;28;20113;-71
2022/04/09 09:12:42;;;;;;;29.58;17.73;;;;;;;4.19;78.55;97230.91;5083461;28;20058;-73
2022/04/09 09:15:08;;;;;;;27.60;16.65;;;;;;;4.28;78.41;97231.91;5092087;28;20020;-72
2022/04/09 09:17:33;;;;;;;27.52;17.30;;;;;;;4.39;79.29;97236.13;5092103;28;20020;-72
2022/04/09 09:20:00;;;;;;;22.35;14.98;;;;;;;4.38;78.31;97248.09;5093224;28;20393;-72
2022/04/09 09:22:39;;;;;;;27.13;16.30;;;;;;;4.38;78.31;97244.56;5092051;28;20051;-72
2022/04/09 09:25:07;;;;;;;23.25;14.38;;;;;;;4.35;77.92;97258.72;5088297;28;20032;-71
2022/04/09 09:27:32;;;;;;;16.75;11.50;;;;;;;4.37;78.38;97262.75;5090946;28;20024;-72
2022/04/09 09:29:58;;;;;;;17.85;11.30;;;;;;;4.33;78.07;97261.69;5090298;28;20122;-71
2022/04/09 09:32:25;;;;;;;24.15;14.35;;;;;;;4.43;78.31;97277.91;5091561;28;20024;-70
2022/04/09 09:34:57;;;;;;;22.80;14.95;;;;;;;4.53;77.86;97273.50;5091333;28;20019;-68
2022/04/09 09:37:24;;;;;;;26.33;16.90;;;;;;;4.60;78.23;97285.63;5090604;28;20500;-68
2022/04/09 09:39:50;;;;;;;22.05;14.88;;;;;;;4.68;77.69;97283.38;5091646;28;20020;-69
2022/04/09 09:42:21;;;;;;;37.38;21.42;;;;;;;4.86;78.40;97285.38;5090969;28;20024;-69
2022/04/09 09:44:47;;;;;;;33.35;19.75;;;;;;;4.95;78.27;97282.84;5091076;28;20047;-69
2022/04/09 09:47:12;;;;;;;33.47;21.50;;;;;;;5.05;77.40;97282.75;5091448;28;20039;-68
2022/04/09 09:49:58;;;;;;;18.20;13.30;;;;;;;5.21;77.32;97287.97;5091679;28;20036;-69
2022/04/09 09:52:29;;;;;;;18.67;14.07;;;;;;;5.27;76.54;97291.47;5091771;28;20024;-68
2022/04/09 09:54:56;;;;;;;16.02;11.68;;;;;;;5.35;76.96;97290.81;5091503;28;20052;-69
2022/04/09 09:57:23;;;;;;;21.60;13.77;;;;;;;5.43;76.60;97300.25;5090076;28;20644;-69
2022/04/09 09:59:50;;;;;;;21.52;13.32;;;;;;;5.50;76.78;97312.38;5090150;28;20157;-69
2022/04/09 10:02:24;;;;;;;17.25;12.05;;;;;;;5.55;76.62;97316.94;5090560;28;20021;-69
2022/04/09 10:04:50;;;;;;;22.40;13.90;;;;;;;5.61;75.62;97334.81;5087663;28;20279;-70
2022/04/09 10:07:17;;;;;;;14.65;11.38;;;;;;;5.64;75.04;97333.44;5090692;28;20016;-69
2022/04/09 10:09:44;;;;;;;14.00;10.68;;;;;;;5.61;75.18;97334.00;5090455;28;20028;-70
2022/04/09 10:12:28;;;;;;;14.35;9.93;;;;;;;5.71;75.60;97339.31;5087467;28;20023;-69
2022/04/09 10:14:59;;;;;;;15.80;10.43;;;;;;;5.77;75.24;97338.13;5088835;28;20059;-68
2022/04/09 10:17:26;;;;;;;16.85;10.20;;;;;;;5.86;74.70;97341.03;5089811;28;20030;-69
2022/04/09 10:20:02;;;;;;;14.00;10.18;;;;;;;5.86;74.31;97353.81;5090547;28;20309;-70
2022/04/09 10:22:36;;;;;;;13.88;10.60;;;;;;;5.85;73.96;97344.03;5086498;28;20016;-69
2022/04/09 10:25:05;;;;;;;17.35;12.07;;;;;;;6.01;74.02;97342.75;5082018;28;20023;-70
2022/04/09 10:27:38;;;;;;;20.00;12.38;;;;;;;6.11;74.12;97353.47;5085376;28;20362;-71
2022/04/09 10:30:17;;;;;;;25.65;15.27;;;;;;;6.14;73.79;97354.00;5088874;28;20085;-70
2022/04/09 10:32:46;;;;;;;22.17;13.52;;;;;;;6.20;73.70;97369.97;5088868;28;20073;-70
2022/04/09 10:35:28;;;;;;;18.67;11.07;;;;;;;6.25;73.77;97366.38;5086843;28;20023;-70
2022/04/09 10:40:34;;;;;;;23.58;11.05;;;;;;;6.34;72.82;97374.66;5088177;28;20085;-71
2022/04/09 10:43:01;;;;;;;14.20;9.52;;;;;;;6.36;73.24;97364.28;5088822;28;20028;-70
2022/04/09 10:45:30;;;;;;;11.38;8.15;;;;;;;6.28;71.49;97376.66;5090195;28;20119;-70
2022/04/09 10:48:14;;;;;;;12.93;8.68;;;;;;;6.12;71.61;97357.03;5091302;28;20024;-69
2022/04/09 10:50:58;;;;;;;13.10;8.55;;;;;;;6.17;71.97;97356.97;5091030;28;20093;-69
2022/04/09 10:53:27;;;;;;;12.55;8.15;;;;;;;6.23;71.90;97360.41;5087996;28;20055;-69
2022/04/09 10:56:14;;;;;;;17.05;9.30;;;;;;;6.31;71.89;97353.50;5087104;28;20044;-67
2022/04/09 10:59:16;;;;;;;12.05;7.65;;;;;;;6.25;71.00;97345.41;5084394;28;20023;-71
2022/04/09 11:01:51;;;;;;;23.52;13.90;;;;;;;6.34;71.67;97340.09;5088328;28;20515;-72
2022/04/09 11:04:34;;;;;;;16.27;10.88;;;;;;;6.39;71.32;97341.91;5086641;28;20023;-71
2022/04/09 11:07:03;;;;;;;12.70;9.60;;;;;;;6.35;70.80;97359.94;5088671;28;20031;-71
2022/04/09 11:09:56;;;;;;;14.45;9.40;;;;;;;6.36;71.23;97377.91;5089665;28;20024;-71
2022/04/09 11:12:28;;;;;;;18.98;9.68;;;;;;;6.29;70.60;97397.34;5087803;28;20043;-71
2022/04/09 11:14:58;;;;;;;24.38;13.65;;;;;;;6.33;71.20;97378.50;5089941;28;20435;-71
2022/04/09 11:17:58;;;;;;;10.93;7.18;;;;;;;6.33;70.96;97384.78;5084158;28;20024;-72
2022/04/09 11:20:24;;;;;;;;;;;;;;;6.41;71.30;97386.00;5080546;28;20047;-71
2022/04/09 11:22:52;;;;;;;17.30;10.45;;;;;;;6.46;70.97;97376.97;5085015;28;19922;-70
2022/04/09 11:25:22;;;;;;;16.27;9.63;;;;;;;6.45;70.47;97362.53;5089714;28;20457;-71
2022/04/09 11:27:49;;;;;;;10.13;6.20;;;;;;;6.48;69.30;97366.59;5089633;28;20027;-69
2022/04/09 11:30:15;;;;;;;11.88;7.75;;;;;;;6.57;68.67;97375.69;5093816;28;20024;-70
2022/04/09 11:32:41;;;;;;;9.60;5.75;;;;;;;6.67;68.95;97372.00;5086494;28;20031;-71
2022/04/09 11:35:12;;;;;;;18.23;8.98;;;;;;;6.68;68.81;97379.06;5089455;28;20016;-69
2022/04/09 11:37:48;;;;;;;12.80;7.15;;;;;;;6.67;68.94;97391.09;5089351;28;20158;-70